Time;durP1;ratioP1;P1;durP2;ratioP2;P2;SDS_P1;SDS_P2;PMS_P1;PMS_P2;Temp;Humidity;BMP_temperature;BMP_pressure;BME280_temperature;BME280_humidity;BME280_pressure;Samples;Min_cycle;Max_cycle;Signal;HPM_P1;HPM_P2
2023/05/28 00:01:48;;;;;;;10.80;3.63;;;;;;;-145.69;100.00;52159.22;5073167;28;20276;-80
2023/05/28 00:04:16;;;;;;;13.33;4.20;;;;;;;-145.69;100.00;52167.13;5073095;28;20203;-80
2023/05/28 00:06:42;;;;;;;9.47;3.83;;;;;;;-145.69;100.00;52123.56;5068658;28;20551;-80
2023/05/28 00:09:10;;;;;;;15.13;3.93;;;;;;;-145.69;100.00;52135.47;5040398;28;20408;-80
2023/05/28 00:11:36;;;;;;;12.60;3.73;;;;;;;-145.69;100.00;52133.47;5065422;28;20291;-81
2023/05/28 00:14:03;;;;;;;14.10;4.30;;;;;;;-145.69;100.00;52171.09;5072906;28;20195;-80
2023/05/28 00:16:29;;;;;;;16.83;4.10;;;;;;;-145.69;100.00;52141.41;5073088;28;20294;-81
2023/05/28 00:18:56;;;;;;;13.43;4.27;;;;;;;-145.69;100.00;52135.47;5072742;28;20199;-81
2023/05/28 00:21:25;;;;;;;12.73;4.33;;;;;;;-145.69;100.00;52159.22;5072847;28;20252;-80
2023/05/28 00:23:52;;;;;;;8.83;3.50;;;;;;;-145.69;100.00;52186.94;5059267;28;20623;-80
2023/05/28 00:26:18;;;;;;;16.27;4.10;;;;;;;-145.69;100.00;52169.13;5052765;28;20219;-80
2023/05/28 00:28:45;;;;;;;9.17;3.97;;;;;;;-145.69;100.00;52139.41;5052588;28;20207;-80
2023/05/28 00:31:12;;;;;;;15.33;3.97;;;;;;;-145.69;100.00;52151.28;5052594;28;20618;-80
2023/05/28 00:33:38;;;;;;;16.97;4.10;;;;;;;-145.69;100.00;52151.28;5052794;28;20199;-80
2023/05/28 00:36:05;;;;;;;11.60;4.27;;;;;;;-145.69;100.00;52177.03;5067499;28;20199;-80
2023/05/28 00:38:33;;;;;;;21.63;4.23;;;;;;;-145.69;100.00;52159.22;5071928;28;20294;-80
2023/05/28 00:40:59;;;;;;;12.93;4.00;;;;;;;-145.69;100.00;52171.09;5064530;28;20203;-80
2023/05/28 00:43:26;;;;;;;10.80;3.83;;;;;;;-145.69;100.00;52131.50;5072622;28;20203;-79
2023/05/28 00:45:52;;;;;;;9.97;3.63;;;;;;;-145.69;100.00;52147.34;5060298;28;20191;-80
2023/05/28 00:48:19;;;;;;;9.03;3.47;;;;;;;-145.69;100.00;52159.22;5052699;28;20708;-81
2023/05/28 00:50:46;;;;;;;12.80;4.27;;;;;;;-145.69;100.00;52165.16;5052238;28;20284;-80
2023/05/28 00:53:14;;;;;;;13.23;3.67;;;;;;;-145.69;100.00;52143.38;5052562;28;20233;-80
2023/05/28 00:55:42;;;;;;;13.33;3.77;;;;;;;-145.69;100.00;52188.91;5062447;28;20199;-80
2023/05/28 00:58:10;;;;;;;12.77;4.10;;;;;;;-145.69;100.00;52151.28;5072633;28;20665;-80
2023/05/28 01:00:38;;;;;;;13.57;4.40;;;;;;;-145.69;100.00;52151.28;5067376;28;20214;-82
2023/05/28 01:03:05;;;;;;;12.77;3.90;;;;;;;-145.69;100.00;52149.31;5052305;28;20289;-81
2023/05/28 01:05:34;;;;;;;17.43;3.77;;;;;;;-145.69;100.00;52161.19;5052553;28;20265;-79
2023/05/28 01:08:01;;;;;;;14.77;4.30;;;;;;;-145.69;100.00;52184.97;5063764;28;20698;-81
2023/05/28 01:10:28;;;;;;;9.53;3.83;;;;;;;-145.69;100.00;52145.34;5054004;28;20219;-80
2023/05/28 01:12:56;;;;;;;11.17;3.90;;;;;;;-145.69;100.00;52155.25;5052494;28;20206;-81
2023/05/28 01:15:23;;;;;;;12.73;3.90;;;;;;;-145.69;100.00;52186.94;5052515;28;20210;-81
2023/05/28 01:17:55;;;;;;;14.43;4.00;;;;;;;-145.69;100.00;52149.31;5055712;28;20210;-80
2023/05/28 01:20:21;;;;;;;18.93;4.13;;;;;;;-145.69;100.00;52151.28;5052438;28;20254;-80
2023/05/28 01:22:55;;;;;;;14.77;3.87;;;;;;;-145.69;100.00;52161.19;5055772;28;20207;-81
2023/05/28 01:25:23;;;;;;;12.10;4.27;;;;;;;-145.69;100.00;52115.66;5056313;28;20290;-81
2023/05/28 01:27:50;;;;;;;9.87;3.83;;;;;;;-145.69;100.00;52159.22;5066635;28;20210;-81
2023/05/28 01:30:16;;;;;;;10.70;3.67;;;;;;;-145.69;100.00;52167.13;5074325;28;20272;-80
2023/05/28 01:32:43;;;;;;;15.33;4.10;;;;;;;-145.69;100.00;52155.25;5075999;28;20199;-82
2023/05/28 01:35:11;;;;;;;13.57;3.80;;;;;;;-145.69;100.00;52111.69;5075924;28;20252;-80
2023/05/28 01:37:40;;;;;;;14.23;3.77;;;;;;;-145.69;100.00;52153.28;5067544;28;20203;-81
2023/05/28 01:40:09;;;;;;;12.23;4.17;;;;;;;-145.69;100.00;52186.94;5066743;28;20586;-81
2023/05/28 01:42:38;;;;;;;13.93;4.27;;;;;;;-145.69;100.00;52145.34;5075697;28;20203;-81
2023/05/28 01:45:07;;;;;;;12.83;3.63;;;;;;;-145.69;100.00;52117.63;5075548;28;20206;-81
2023/05/28 01:47:34;;;;;;;12.50;3.83;;;;;;;-145.69;100.00;52135.47;5075660;28;20570;-81
2023/05/28 01:50:01;;;;;;;14.67;3.23;;;;;;;-145.69;100.00;52161.19;5064904;28;20239;-81
2023/05/28 01:52:27;;;;;;;10.63;3.40;;;;;;;-145.69;100.00;52165.16;5055504;28;20200;-81
2023/05/28 01:54:54;;;;;;;17.73;3.90;;;;;;;-145.69;100.00;52127.53;5055335;28;20200;-81
2023/05/28 01:57:20;;;;;;;13.70;3.70;;;;;;;-145.69;100.00;52157.25;5053588;28;20207;-82
2023/05/28 01:59:48;;;;;;;9.03;3.67;;;;;;;-145.69;100.00;52171.09;5055139;28;20211;-82
2023/05/28 02:02:15;;;;;;;13.83;3.90;;;;;;;-145.69;100.00;52163.19;5065815;28;20206;-82
2023/05/28 02:04:41;;;;;;;12.93;3.77;;;;;;;-145.69;100.00;52184.97;5075430;28;20203;-83
2023/05/28 02:07:08;;;;;;;11.67;4.07;;;;;;;-145.69;100.00;52159.22;5075431;28;20198;-82
2023/05/28 02:09:34;;;;;;;9.30;3.47;;;;;;;-145.69;100.00;52163.19;5065440;28;20256;-84
2023/05/28 02:12:02;;;;;;;9.83;3.27;;;;;;;-145.69;100.00;52133.47;5075154;28;20233;-82
2023/05/28 02:14:29;;;;;;;12.80;3.70;;;;;;;-145.69;100.00;52171.09;5062601;28;20290;-82
2023/05/28 02:16:57;;;;;;;14.37;3.83;;;;;;;-145.69;100.00;52167.13;5064848;28;20209;-81
2023/05/28 02:19:24;;;;;;;14.20;4.10;;;;;;;-145.69;100.00;52153.28;5055702;28;20306;-82
2023/05/28 02:21:51;;;;;;;12.40;4.03;;;;;;;-145.69;100.00;52165.16;5055103;28;20665;-82
2023/05/28 02:24:17;;;;;;;10.27;3.70;;;;;;;-145.69;100.00;52186.94;5054751;28;20208;-82
2023/05/28 02:26:44;;;;;;;10.90;4.00;;;;;;;-145.69;100.00;52151.28;5062343;28;20194;-81
2023/05/28 02:29:10;;;;;;;13.23;3.67;;;;;;;-145.69;100.00;52188.91;5074804;28;20203;-81
2023/05/28 02:31:36;;;;;;;13.13;3.77;;;;;;;-145.69;100.00;52179.03;5074778;28;20261;-81
2023/05/28 02:34:04;;;;;;;13.90;4.33;;;;;;;-145.69;100.00;52186.94;5074806;28;20207;-82
2023/05/28 02:36:32;;;;;;;9.73;4.50;;;;;;;-145.69;100.00;52145.34;5074916;28;20226;-81
2023/05/28 02:38:59;;;;;;;12.33;3.80;;;;;;;-145.69;100.00;52171.09;5070419;28;20691;-82
2023/05/28 02:41:29;;;;;;;13.10;3.73;;;;;;;-145.69;100.00;52159.22;5074737;28;20194;-82
2023/05/28 02:43:55;;;;;;;7.97;3.50;;;;;;;-145.69;100.00;52169.13;5074381;28;20510;-83
2023/05/28 02:46:22;;;;;;;12.23;4.13;;;;;;;-145.69;100.00;52145.34;5074617;28;20202;-82
2023/05/28 02:48:48;;;;;;;9.53;3.90;;;;;;;-145.69;100.00;52167.13;5074174;28;20202;-82
2023/05/28 02:51:16;;;;;;;10.23;4.57;;;;;;;-145.69;100.00;52190.91;5064430;28;20227;-81
2023/05/28 02:53:42;;;;;;;10.83;4.07;;;;;;;-145.69;100.00;52220.59;5054366;28;20199;-82
2023/05/28 02:56:09;;;;;;;11.00;3.83;;;;;;;-145.69;100.00;52190.91;5054378;28;20230;-82
2023/05/28 02:58:36;;;;;;;9.50;3.40;;;;;;;-145.69;100.00;52149.31;5054299;28;20199;-82
2023/05/28 03:01:03;;;;;;;11.20;3.83;;;;;;;-145.69;100.00;52188.91;5053685;28;20195;-82
2023/05/28 03:03:29;;;;;;;13.60;3.67;;;;;;;-145.69;100.00;52177.03;5054380;28;20689;-82
2023/05/28 03:05:56;;;;;;;10.53;3.90;;;;;;;-145.69;100.00;52167.13;5054326;28;20203;-82
2023/05/28 03:08:24;;;;;;;7.47;3.43;;;;;;;-145.69;100.00;52182.97;5053932;28;20658;-82
2023/05/28 03:10:50;;;;;;;9.97;3.97;;;;;;;-145.69;100.00;52161.19;5073184;28;20218;-82
2023/05/28 03:13:16;;;;;;;13.47;3.87;;;;;;;-145.69;100.00;52218.63;5073994;28;20665;-82
2023/05/28 03:15:43;;;;;;;19.00;4.33;;;;;;;-145.69;100.00;52179.03;5072298;28;20202;-82
2023/05/28 03:18:09;;;;;;;16.13;4.43;;;;;;;-145.69;100.00;52171.09;5062872;28;20203;-83
2023/05/28 03:20:36;;;;;;;17.83;4.17;;;;;;;-145.69;100.00;52171.09;5054029;28;20211;-83
2023/05/28 03:23:03;;;;;;;15.97;4.30;;;;;;;-145.69;100.00;52218.63;5053885;28;20208;-83
2023/05/28 03:25:30;;;;;;;11.67;4.27;;;;;;;-145.69;100.00;52188.91;5053839;28;20211;-82
2023/05/28 03:27:57;;;;;;;17.77;4.70;;;;;;;-145.69;100.00;52206.75;5067549;28;20209;-83
2023/05/28 03:30:23;;;;;;;12.53;3.73;;;;;;;-145.69;100.00;52179.03;5073475;28;20348;-82
2023/05/28 03:32:50;;;;;;;13.63;4.40;;;;;;;-145.69;100.00;52190.91;5073461;28;20202;-83
2023/05/28 03:35:17;;;;;;;12.30;4.07;;;;;;;-145.69;100.00;52182.97;5073753;28;20202;-83
2023/05/28 03:37:43;;;;;;;12.40;4.07;;;;;;;-145.69;100.00;52194.88;5072763;28;20207;-83
2023/05/28 03:40:10;;;;;;;13.07;4.37;;;;;;;-145.69;100.00;52200.81;5068120;28;20195;-82
2023/05/28 03:42:39;;;;;;;11.53;4.03;;;;;;;-145.69;100.00;52190.91;5072419;28;20729;-83
2023/05/28 03:45:07;;;;;;;13.83;4.13;;;;;;;-145.69;100.00;52188.91;5073356;28;20195;-83
2023/05/28 03:47:34;;;;;;;12.53;3.90;;;;;;;-145.69;100.00;52177.03;5073406;28;20238;-84
2023/05/28 03:50:00;;;;;;;19.20;4.40;;;;;;;-145.69;100.00;52210.72;5073242;28;20446;-85
2023/05/28 03:52:28;;;;;;;11.97;3.97;;;;;;;-145.69;100.00;52167.13;5057370;28;20285;-83
2023/05/28 03:54:54;;;;;;;12.47;3.80;;;;;;;-145.69;100.00;52190.91;5053329;28;20621;-83
2023/05/28 03:57:21;;;;;;;11.33;4.00;;;;;;;-145.69;100.00;52171.09;5053426;28;20207;-83
2023/05/28 03:59:49;;;;;;;12.27;3.83;;;;;;;-145.69;100.00;52177.03;5053264;28;20203;-83
2023/05/28 04:02:15;;;;;;;9.87;3.47;;;;;;;-145.69;100.00;52196.84;5053303;28;20557;-83
2023/05/28 04:04:42;;;;;;;12.97;4.13;;;;;;;-145.69;100.00;52186.94;5066731;28;20225;-83
2023/05/28 04:07:08;;;;;;;12.20;4.23;;;;;;;-145.69;100.00;52155.25;5073349;28;20256;-84
2023/05/28 04:09:34;;;;;;;17.77;4.03;;;;;;;-145.69;100.00;52198.81;5065425;28;20650;-83
2023/05/28 04:12:01;;;;;;;12.73;4.03;;;;;;;-145.69;100.00;52192.88;5052992;28;20229;-83
2023/05/28 04:14:28;;;;;;;14.82;4.65;;;;;;;-145.69;100.00;52186.94;5052141;28;20474;-83
2023/05/28 04:16:57;;;;;;;9.13;4.10;;;;;;;-145.69;100.00;52157.25;5053729;28;20199;-82
2023/05/28 04:19:24;;;;;;;14.97;3.77;;;;;;;-145.69;100.00;52184.97;5050629;28;20191;-84
2023/05/28 04:21:50;;;;;;;12.83;3.93;;;;;;;-145.69;100.00;52155.25;5052890;28;20199;-84
2023/05/28 04:24:16;;;;;;;10.03;3.30;;;;;;;-145.69;100.00;52181.00;5052936;28;20862;-84
2023/05/28 04:26:43;;;;;;;12.43;3.90;;;;;;;-145.69;100.00;52151.28;5052913;28;20202;-83
2023/05/28 04:29:09;;;;;;;10.60;3.63;;;;;;;-145.69;100.00;52155.25;5072063;28;20203;-82
2023/05/28 04:31:36;;;;;;;8.37;3.77;;;;;;;-145.69;100.00;52171.09;5072737;28;20222;-82
2023/05/28 04:34:04;;;;;;;10.60;3.73;;;;;;;-145.69;100.00;52190.91;5072796;28;20557;-81
2023/05/28 04:36:32;;;;;;;12.50;3.87;;;;;;;-145.69;100.00;52192.88;5072685;28;20207;-80
2023/05/28 04:39:01;;;;;;;12.80;4.17;;;;;;;-145.69;100.00;52181.00;5069095;28;20252;-81
2023/05/28 04:41:27;;;;;;;10.27;3.60;;;;;;;-145.69;100.00;52177.03;5060773;28;20198;-82
2023/05/28 04:43:55;;;;;;;13.17;3.90;;;;;;;-145.69;100.00;52147.34;5071585;28;20203;-81
2023/05/28 04:46:25;;;;;;;13.30;4.00;;;;;;;-145.69;100.00;52135.47;5072687;28;20230;-82
2023/05/28 04:48:51;;;;;;;9.83;3.60;;;;;;;-145.69;100.00;52165.16;5072219;28;20203;-82
2023/05/28 04:51:20;;;;;;;11.00;3.47;;;;;;;-145.69;100.00;52179.03;5066491;28;20633;-82
2023/05/28 04:53:47;;;;;;;9.30;3.77;;;;;;;-145.69;100.00;52181.00;5052509;28;20195;-81
2023/05/28 04:56:13;;;;;;;12.43;4.10;;;;;;;-145.69;100.00;52208.72;5053359;28;20716;-81
2023/05/28 04:58:40;;;;;;;13.00;3.63;;;;;;;-145.69;100.00;52198.81;5056589;28;20203;-82
2023/05/28 05:01:07;;;;;;;12.57;3.37;;;;;;;-145.69;100.00;52161.19;5056215;28;20225;-81
2023/05/28 05:03:34;;;;;;;13.23;3.70;;;;;;;-145.69;100.00;52169.13;5060445;28;20427;-83
2023/05/28 05:06:01;;;;;;;8.73;3.27;;;;;;;-145.69;100.00;52131.50;5056476;28;20195;-81
2023/05/28 05:08:29;;;;;;;8.80;3.57;;;;;;;-145.69;100.00;52151.28;5056074;28;20199;-81
2023/05/28 05:10:56;;;;;;;11.30;3.40;;;;;;;-145.69;100.00;52179.03;5075823;28;20218;-81
2023/05/28 05:13:23;;;;;;;10.80;3.40;;;;;;;-145.69;100.00;52175.06;5075986;28;20260;-81
2023/05/28 05:15:50;;;;;;;7.80;2.97;;;;;;;-145.69;100.00;52169.13;5056273;28;20257;-81
2023/05/28 05:18:16;;;;;;;6.73;3.47;;;;;;;-145.69;100.00;52153.28;5056069;28;20624;-82
2023/05/28 05:20:42;;;;;;;11.53;3.43;;;;;;;-145.69;100.00;52196.84;5056038;28;20686;-82
2023/05/28 05:23:09;;;;;;;10.53;3.80;;;;;;;-145.69;100.00;52165.16;5056193;28;20199;-81
2023/05/28 05:25:36;;;;;;;8.70;3.40;;;;;;;-145.69;100.00;52133.47;5055904;28;20265;-81
2023/05/28 05:28:03;;;;;;;15.43;3.57;;;;;;;-145.69;100.00;52099.81;5056210;28;20597;-81
2023/05/28 05:30:29;;;;;;;17.80;3.70;;;;;;;-145.69;100.00;52133.47;5055954;28;20207;-82
2023/05/28 05:32:56;;;;;;;8.83;3.27;;;;;;;-145.69;100.00;52141.41;5055394;28;20234;-81
2023/05/28 05:35:23;;;;;;;7.95;3.35;;;;;;;-145.69;100.00;52139.41;5055978;28;20307;-82
2023/05/28 05:37:49;;;;;;;15.05;3.55;;;;;;;-145.69;92.00;52135.47;5055975;28;20242;-82
2023/05/28 05:40:16;;;;;;;12.32;3.35;;;;;;;-145.69;81.62;52076.03;5069079;28;20577;-81
2023/05/28 05:42:44;;;;;;;15.60;3.38;;;;;;;-145.69;71.84;52115.66;5064052;28;20518;-82
2023/05/28 05:45:10;;;;;;;8.25;3.30;;;;;;;-145.69;65.92;52103.78;5055740;28;20200;-83
2023/05/28 05:47:38;;;;;;;11.20;3.70;;;;;;;-145.69;64.26;52087.94;5060522;28;20217;-80
2023/05/28 05:50:05;;;;;;;10.35;3.22;;;;;;;-145.69;63.65;52078.03;5075509;28;20280;-81
2023/05/28 05:52:31;;;;;;;11.75;3.38;;;;;;;-145.69;64.59;52068.13;5075707;28;20234;-82
2023/05/28 05:54:58;;;;;;;8.60;3.35;;;;;;;-145.69;62.24;52060.22;5062812;28;20202;-82
2023/05/28 05:57:26;;;;;;;12.35;3.67;;;;;;;-145.69;62.11;52070.09;5055489;28;20253;-83
2023/05/28 05:59:54;;;;;;;7.28;3.38;;;;;;;-145.69;65.16;52048.31;5055452;28;20210;-82
2023/05/28 06:02:20;;;;;;;10.25;3.50;;;;;;;-145.69;63.99;52062.19;5055635;28;20203;-79
2023/05/28 06:04:47;;;;;;;11.80;2.97;;;;;;;-145.69;64.54;52044.38;5055534;28;20203;-82
2023/05/28 06:07:13;;;;;;;7.97;2.90;;;;;;;-145.69;61.50;52095.84;5068432;28;20191;-81
2023/05/28 06:09:40;;;;;;;13.10;3.67;;;;;;;-145.69;60.64;52082.00;5063224;28;20230;-81
2023/05/28 06:12:07;;;;;;;10.40;3.53;;;;;;;-145.69;59.37;52074.06;5055002;28;20255;-81
2023/05/28 06:14:33;;;;;;;12.65;4.07;;;;;;;-145.69;59.18;52074.06;5054818;28;20195;-81
2023/05/28 06:17:01;;;;;;;8.75;3.10;;;;;;;-145.69;58.97;52050.31;5055268;28;20211;-82
2023/05/28 06:19:29;;;;;;;9.30;3.47;;;;;;;-145.69;57.17;52040.41;5071982;28;20206;-79
2023/05/28 06:21:55;;;;;;;10.85;3.42;;;;;;;-145.69;56.30;52064.16;5074932;28;20435;-81
2023/05/28 06:24:21;;;;;;;12.98;3.40;;;;;;;-145.69;55.84;52076.03;5067068;28;20195;-81
2023/05/28 06:26:48;;;;;;;9.18;3.60;;;;;;;-145.69;56.70;52024.56;5054951;28;20532;-85
2023/05/28 06:29:14;;;;;;;10.60;3.65;;;;;;;-145.69;55.31;52066.16;5055231;28;20203;-82
2023/05/28 06:31:41;;;;;;;9.63;3.63;;;;;;;-145.69;56.90;52054.25;5055034;28;20242;-80
2023/05/28 06:34:09;;;;;;;10.75;3.67;;;;;;;-145.69;53.19;52052.28;5059871;28;20202;-82
2023/05/28 06:36:36;;;;;;;15.88;3.45;;;;;;;-145.69;52.99;52038.44;5074847;28;20195;-81
2023/05/28 06:39:04;;;;;;;9.45;3.47;;;;;;;-145.69;52.20;52032.47;5073053;28;20245;-84
2023/05/28 06:41:30;;;;;;;8.10;3.17;;;;;;;-145.69;52.61;52040.41;5054819;28;20559;-83
2023/05/28 06:43:57;;;;;;;12.52;3.38;;;;;;;-145.69;54.68;52026.53;5054653;28;20540;-83
2023/05/28 06:46:23;;;;;;;11.93;3.35;;;;;;;-145.69;53.27;52032.47;5062715;28;20554;-81
2023/05/28 06:48:52;;;;;;;20.50;3.90;;;;;;;-145.69;53.23;52034.47;5054930;28;20196;-82
2023/05/28 06:51:20;;;;;;;12.50;3.58;;;;;;;-145.69;57.53;52032.47;5054632;28;20260;-83
2023/05/28 06:53:47;;;;;;;11.20;3.45;;;;;;;-145.69;53.20;52052.28;5054607;28;20639;-83
2023/05/28 06:56:14;;;;;;;14.85;3.50;;;;;;;-145.69;50.60;52028.53;5054427;28;20290;-84
2023/05/28 06:58:40;;;;;;;12.02;3.45;;;;;;;-145.69;52.87;52060.22;5060747;28;20253;-83
2023/05/28 07:01:07;;;;;;;10.20;3.15;;;;;;;-145.69;52.25;52052.28;5056080;28;20199;-86
2023/05/28 07:03:35;;;;;;;6.40;2.95;;;;;;;-145.69;50.47;52038.44;5054847;28;20585;-88
2023/05/28 07:06:01;;;;;;;15.30;3.47;;;;;;;-145.69;53.56;52034.47;5054448;28;20306;-86
2023/05/28 07:08:29;;;;;;;8.30;3.00;;;;;;;-145.69;54.04;52032.47;5054541;28;20723;-82
2023/05/28 07:10:55;;;;;;;12.93;3.47;;;;;;;-145.69;50.25;52028.53;5060513;28;20195;-86
2023/05/28 07:13:22;;;;;;;13.70;3.47;;;;;;;-145.69;52.42;52032.47;5057416;28;20227;-85
2023/05/28 07:15:50;;;;;;;9.52;3.40;;;;;;;-145.69;51.26;52022.59;5054143;28;20261;-85
2023/05/28 07:18:16;;;;;;;11.95;3.33;;;;;;;-145.69;53.53;52026.53;5053780;28;20654;-84
2023/05/28 07:20:43;;;;;;;8.70;3.17;;;;;;;-145.69;50.14;52024.56;5053634;28;20227;-88
2023/05/28 07:23:11;;;;;;;11.27;3.40;;;;;;;-145.69;49.05;52030.50;5067666;28;20600;-83
2023/05/28 07:25:38;;;;;;;6.22;3.03;;;;;;;-145.69;49.41;52038.44;5074224;28;20199;-84
2023/05/28 07:28:05;;;;;;;12.20;3.63;;;;;;;-145.69;49.78;52040.41;5074130;28;20198;-88
2023/05/28 07:30:32;;;;;;;11.25;3.33;;;;;;;-145.69;48.06;52032.47;5074088;28;20198;-85
2023/05/28 07:32:58;;;;;;;11.48;3.33;;;;;;;-145.69;47.46;52000.81;5069835;28;20216;-85
2023/05/28 07:35:25;;;;;;;11.00;3.35;;;;;;;-145.69;47.19;52040.41;5055060;28;20198;-81
2023/05/28 07:37:52;;;;;;;7.85;2.88;;;;;;;-145.69;47.12;52002.78;5054703;28;20199;-79
2023/05/28 07:40:19;;;;;;;8.90;2.83;;;;;;;-145.69;46.99;52000.81;5062022;28;20531;-79
2023/05/28 07:42:47;;;;;;;11.30;3.78;;;;;;;-145.69;47.15;52008.72;5060317;28;20565;-79
2023/05/28 07:45:14;;;;;;;9.52;2.90;;;;;;;-145.69;46.50;52014.66;5070308;28;20209;-82
2023/05/28 07:47:41;;;;;;;8.75;3.00;;;;;;;-145.69;48.88;52028.53;5073311;28;20197;-79
2023/05/28 07:50:11;;;;;;;8.52;3.10;;;;;;;-145.69;47.26;52008.72;5073861;28;20230;-82
2023/05/28 07:52:40;;;;;;;11.25;3.40;;;;;;;-145.69;45.95;52026.53;5074452;28;20222;-79
2023/05/28 07:55:07;;;;;;;10.68;3.83;;;;;;;-145.69;45.43;51992.88;5059502;28;20428;-85
2023/05/28 07:57:34;;;;;;;8.23;2.92;;;;;;;-145.69;43.27;52010.69;5054577;28;20222;-78
2023/05/28 08:00:06;;;;;;;10.65;3.28;;;;;;;-145.69;45.86;51984.97;5053037;28;20210;-78
2023/05/28 08:02:32;;;;;;;7.65;2.80;;;;;;;-145.69;49.37;52020.59;5060858;28;20195;-79
2023/05/28 08:04:59;;;;;;;10.32;3.13;;;;;;;-145.69;43.06;51959.22;5073323;28;20294;-81
2023/05/28 08:07:25;;;;;;;12.30;3.33;;;;;;;-145.69;43.23;52000.81;5073278;28;20195;-82
2023/05/28 08:09:52;;;;;;;9.88;3.08;;;;;;;-145.69;44.93;51994.88;5066434;28;20274;-80
2023/05/28 08:12:18;;;;;;;7.20;2.97;;;;;;;-145.69;44.22;51977.03;5057756;28;20215;-79
2023/05/28 08:14:45;;;;;;;9.05;2.83;;;;;;;-145.69;44.17;51973.06;5040161;28;20208;-78
2023/05/28 08:17:13;;;;;;;10.75;2.97;;;;;;;-145.69;44.63;52028.53;5032991;28;20199;-79
2023/05/28 08:19:40;;;;;;;8.00;2.92;;;;;;;-145.69;44.86;52020.59;5052038;28;20566;-80
2023/05/28 08:22:09;;;;;;;9.95;3.22;;;;;;;-145.69;43.43;51979.03;5052297;28;20202;-78
2023/05/28 08:24:35;;;;;;;10.68;2.97;;;;;;;-145.69;41.50;51971.09;5068141;28;20534;-85
2023/05/28 08:27:05;;;;;;;9.95;3.08;;;;;;;-145.69;41.52;51998.81;5073241;28;20203;-78
2023/05/28 08:29:32;;;;;;;10.23;2.95;;;;;;;-145.69;40.60;51998.81;5072584;28;20202;-78
2023/05/28 08:31:58;;;;;;;10.52;3.35;;;;;;;-145.69;40.52;51988.91;5072496;28;20253;-81
2023/05/28 08:34:29;;;;;;;8.43;3.22;;;;;;;-145.69;40.37;51981.00;5070977;28;20657;-79
2023/05/28 08:36:56;;;;;;;16.90;3.53;;;;;;;-145.69;41.08;51963.19;5072722;28;20210;-79
2023/05/28 08:39:26;;;;;;;9.45;3.15;;;;;;;-145.69;41.26;51961.19;5070950;28;20209;-78
2023/05/28 08:41:53;;;;;;;6.22;2.72;;;;;;;-145.69;40.08;51998.81;5052660;28;20196;-80
2023/05/28 08:44:20;;;;;;;11.25;3.08;;;;;;;-145.69;40.89;51947.34;5052502;28;20203;-80
2023/05/28 08:46:48;;;;;;;7.18;2.70;;;;;;;-145.69;40.12;51982.97;5071050;28;20209;-80
2023/05/28 08:49:18;;;;;;;23.88;3.60;;;;;;;-145.69;40.44;51990.91;5072481;28;20318;-84
2023/05/28 08:51:53;;;;;;;12.68;2.88;;;;;;;-145.69;40.34;51988.91;5072693;28;20562;-79
2023/05/28 08:54:20;;;;;;;14.95;3.20;;;;;;;-145.69;38.58;51963.19;5072454;28;20255;-78
2023/05/28 08:56:46;;;;;;;9.32;2.78;;;;;;;-145.69;39.97;51977.03;5072395;28;20195;-79
2023/05/28 08:59:17;;;;;;;7.95;2.90;;;;;;;-145.69;38.78;51967.13;5052375;28;20196;-81
2023/05/28 09:01:47;;;;;;;7.15;2.60;;;;;;;-145.69;37.93;51969.13;5052857;28;20203;-81
2023/05/28 09:04:17;;;;;;;9.15;3.40;;;;;;;-145.69;39.21;51984.97;5052217;28;20207;-79
2023/05/28 09:06:45;;;;;;;11.45;3.22;;;;;;;-145.69;39.75;51953.28;5052382;28;20207;-78
2023/05/28 09:09:12;;;;;;;8.13;2.85;;;;;;;-145.69;40.54;51986.94;5055906;28;20195;-78
2023/05/28 09:11:40;;;;;;;10.18;3.47;;;;;;;-145.69;42.28;51969.13;5071166;28;20199;-78
2023/05/28 09:14:11;;;;;;;7.45;3.17;;;;;;;-145.69;41.96;51973.06;5051458;28;20571;-77
2023/05/28 09:16:41;;;;;;;8.60;2.58;;;;;;;-145.69;39.47;51917.63;5052282;28;20629;-78
2023/05/28 09:19:10;;;;;;;6.38;2.75;;;;;;;-145.69;38.79;51967.13;5052352;28;20195;-77
2023/05/28 09:21:39;;;;;;;8.25;3.13;;;;;;;-145.69;37.93;51971.09;5057594;28;20187;-81
2023/05/28 09:24:07;;;;;;;10.00;3.10;;;;;;;-145.69;37.27;51984.97;5072151;28;20573;-80
2023/05/28 09:26:34;;;;;;;9.35;3.13;;;;;;;-145.69;37.39;51990.91;5072381;28;20225;-78
2023/05/28 09:29:03;;;;;;;4.80;2.10;;;;;;;-145.69;36.99;52020.59;5072510;28;20207;-78
2023/05/28 09:31:32;;;;;;;8.18;2.70;;;;;;;-145.69;37.42;51957.25;5072326;28;20561;-77
2023/05/28 09:34:02;;;;;;;8.15;2.92;;;;;;;-145.69;40.91;51967.13;5061713;28;20223;-78
2023/05/28 09:36:32;;;;;;;8.00;2.85;;;;;;;-145.69;38.09;51992.88;5052049;28;20579;-78
2023/05/28 09:39:06;;;;;;;7.55;3.20;;;;;;;-145.69;38.45;51927.53;5052323;28;20227;-78
2023/05/28 09:41:36;;;;;;;6.88;3.33;;;;;;;-145.69;37.11;51973.06;5070902;28;20534;-77
2023/05/28 09:44:05;;;;;;;8.60;2.60;;;;;;;-145.69;39.19;51927.53;5075911;28;20207;-78
2023/05/28 09:46:33;;;;;;;12.10;3.20;;;;;;;-145.69;37.48;51951.28;5060402;28;20195;-79
2023/05/28 09:49:02;;;;;;;10.10;2.88;;;;;;;-145.69;40.34;51949.31;5055576;28;20563;-77
2023/05/28 09:51:32;;;;;;;9.35;2.78;;;;;;;-145.69;36.98;51977.03;5055788;28;20214;-80
2023/05/28 09:54:14;;;;;;;7.32;2.55;;;;;;;-145.69;38.74;51971.09;5054927;28;20586;-81
2023/05/28 09:56:45;;;;;;;6.72;2.50;;;;;;;-145.69;37.03;51933.47;5055324;28;20238;-79
2023/05/28 09:59:32;;;;;;;10.20;3.22;;;;;;;-145.69;35.68;51967.13;5055389;28;20543;-81
2023/05/28 10:02:22;;;;;;;6.95;2.55;;;;;;;-145.69;38.93;51959.22;5055653;28;20203;-78
2023/05/28 10:04:54;;;;;;;11.02;2.80;;;;;;;-145.69;37.68;51953.28;5049042;28;20204;-78
2023/05/28 10:07:38;;;;;;;9.75;3.20;;;;;;;-145.69;39.59;51961.19;5035236;28;20196;-79
2023/05/28 10:10:11;;;;;;;7.70;2.80;;;;;;;-145.69;36.94;51969.13;5046288;28;20195;-79
2023/05/28 10:12:59;;;;;;;12.98;3.35;;;;;;;-145.69;36.94;51955.25;5055174;28;20224;-79
2023/05/28 10:15:30;;;;;;;9.23;3.25;;;;;;;-145.69;37.11;51975.06;5046985;28;20199;-79
2023/05/28 10:18:01;;;;;;;7.45;3.10;;;;;;;-145.69;36.62;51937.44;5053237;28;20201;-79
2023/05/28 10:20:28;;;;;;;9.77;2.90;;;;;;;-145.69;38.25;51941.41;5053093;28;20191;-78
2023/05/28 10:22:59;;;;;;;5.53;2.50;;;;;;;-145.69;36.07;51971.09;5059722;28;20195;-78
2023/05/28 10:25:26;;;;;;;7.93;2.55;;;;;;;-145.69;37.71;51957.25;5073378;28;20642;-80
2023/05/28 10:28:04;;;;;;;9.13;2.78;;;;;;;-145.69;39.33;51955.25;5073282;28;20294;-77
2023/05/28 10:30:39;;;;;;;10.77;2.85;;;;;;;-145.69;38.01;51955.25;5074434;28;20203;-78
2023/05/28 10:33:09;;;;;;;7.10;2.70;;;;;;;-145.69;39.01;51921.59;5075013;28;20257;-78
2023/05/28 10:35:53;;;;;;;8.88;2.70;;;;;;;-145.69;39.75;51949.31;5073430;28;20362;-79
2023/05/28 10:38:23;;;;;;;9.45;3.28;;;;;;;-145.69;40.21;51937.44;5074958;28;20561;-77
2023/05/28 10:41:02;;;;;;;6.25;2.63;;;;;;;-145.69;37.14;51949.31;5062344;28;20211;-78
2023/05/28 10:43:47;;;;;;;12.68;3.28;;;;;;;-145.69;37.43;51927.53;5054851;28;20203;-79
2023/05/28 10:46:22;;;;;;;10.50;3.15;;;;;;;-145.69;37.00;51951.28;5054669;28;20210;-79
2023/05/28 10:49:12;;;;;;;6.82;2.55;;;;;;;-145.69;37.62;51909.72;5073410;28;20276;-78
2023/05/28 10:52:02;;;;;;;10.45;2.75;;;;;;;-145.69;38.52;51943.38;5074464;28;20569;-79
2023/05/28 10:54:55;;;;;;;6.63;2.70;;;;;;;-145.69;38.38;51949.31;5073778;28;20688;-78
2023/05/28 10:57:24;;;;;;;7.82;2.47;;;;;;;-145.69;39.72;51945.34;5055108;28;20199;-79
2023/05/28 10:59:53;;;;;;;9.55;3.05;;;;;;;-145.69;36.07;51939.41;5059922;28;20657;-83
2023/05/28 11:02:26;;;;;;;10.30;3.20;;;;;;;-145.69;36.05;51937.44;5074353;28;20210;-78
2023/05/28 11:05:11;;;;;;;8.05;2.70;;;;;;;-145.69;38.00;51933.47;5074755;28;20199;-85
2023/05/28 11:07:42;;;;;;;7.32;2.63;;;;;;;-145.69;37.95;51953.28;5074272;28;20202;-80
2023/05/28 11:10:10;;;;;;;8.98;2.97;;;;;;;-145.69;36.30;51941.41;5072153;28;20281;-79
2023/05/28 11:12:38;;;;;;;9.77;2.88;;;;;;;-145.69;37.88;51947.34;5063396;28;20588;-78
2023/05/28 11:15:09;;;;;;;12.98;3.40;;;;;;;-145.69;36.55;51941.41;5054172;28;20246;-78